sensor_id;sensor_type;location;lat;lon;timestamp;P1;durP1;ratioP1;P2;durP2;ratioP2
29218;SDS011;16421;50.202;7.852;2023-12-20T00:04:27;0.50;;;0.50;;
29218;SDS011;16421;50.202;7.852;2023-12-20T00:09:30;0.40;;;0.40;;
29218;SDS011;16421;50.202;7.852;2023-12-20T00:14:34;0.40;;;0.40;;
29218;SDS011;16421;50.202;7.852;2023-12-20T00:19:38;0.65;;;0.57;;
29218;SDS011;16421;50.202;7.852;2023-12-20T00:24:41;0.55;;;0.50;;
29218;SDS011;16421;50.202;7.852;2023-12-20T00:29:46;0.40;;;0.40;;
29218;SDS011;16421;50.202;7.852;2023-12-20T00:34:51;0.50;;;0.40;;
29218;SDS011;16421;50.202;7.852;2023-12-20T00:39:54;0.40;;;0.40;;
29218;SDS011;16421;50.202;7.852;2023-12-20T00:44:59;0.73;;;0.57;;
29218;SDS011;16421;50.202;7.852;2023-12-20T00:50:03;0.50;;;0.50;;
29218;SDS011;16421;50.202;7.852;2023-12-20T00:55:06;0.65;;;0.65;;
29218;SDS011;16421;50.202;7.852;2023-12-20T01:00:12;0.55;;;0.55;;
29218;SDS011;16421;50.202;7.852;2023-12-20T01:05:16;1.13;;;0.60;;
29218;SDS011;16421;50.202;7.852;2023-12-20T01:10:20;0.47;;;0.47;;
29218;SDS011;16421;50.202;7.852;2023-12-20T01:15:25;0.40;;;0.40;;
29218;SDS011;16421;50.202;7.852;2023-12-20T01:20:28;0.98;;;0.60;;
29218;SDS011;16421;50.202;7.852;2023-12-20T01:25:31;0.47;;;0.47;;
29218;SDS011;16421;50.202;7.852;2023-12-20T01:30:36;0.40;;;0.40;;
29218;SDS011;16421;50.202;7.852;2023-12-20T01:35:39;0.40;;;0.40;;
29218;SDS011;16421;50.202;7.852;2023-12-20T01:40:42;1.65;;;0.50;;
29218;SDS011;16421;50.202;7.852;2023-12-20T01:45:47;0.52;;;0.52;;
29218;SDS011;16421;50.202;7.852;2023-12-20T01:50:51;0.38;;;0.38;;
29218;SDS011;16421;50.202;7.852;2023-12-20T01:55:54;0.60;;;0.60;;
29218;SDS011;16421;50.202;7.852;2023-12-20T02:01:01;0.38;;;0.38;;
29218;SDS011;16421;50.202;7.852;2023-12-20T02:06:04;0.45;;;0.45;;
29218;SDS011;16421;50.202;7.852;2023-12-20T02:11:08;0.30;;;0.30;;
29218;SDS011;16421;50.202;7.852;2023-12-20T02:16:13;0.43;;;0.43;;
29218;SDS011;16421;50.202;7.852;2023-12-20T02:21:17;0.50;;;0.50;;
29218;SDS011;16421;50.202;7.852;2023-12-20T02:26:21;0.50;;;0.50;;
29218;SDS011;16421;50.202;7.852;2023-12-20T02:31:24;0.50;;;0.50;;
29218;SDS011;16421;50.202;7.852;2023-12-20T02:36:28;0.50;;;0.50;;
29218;SDS011;16421;50.202;7.852;2023-12-20T02:41:32;0.60;;;0.60;;
29218;SDS011;16421;50.202;7.852;2023-12-20T02:46:35;0.60;;;0.50;;
29218;SDS011;16421;50.202;7.852;2023-12-20T02:51:39;0.70;;;0.63;;
29218;SDS011;16421;50.202;7.852;2023-12-20T02:56:43;0.88;;;0.85;;
29218;SDS011;16421;50.202;7.852;2023-12-20T03:01:46;0.70;;;0.70;;
29218;SDS011;16421;50.202;7.852;2023-12-20T03:06:50;0.80;;;0.80;;
29218;SDS011;16421;50.202;7.852;2023-12-20T03:11:54;0.90;;;0.60;;
29218;SDS011;16421;50.202;7.852;2023-12-20T03:16:57;1.58;;;0.70;;
29218;SDS011;16421;50.202;7.852;2023-12-20T03:22:01;1.08;;;0.63;;
29218;SDS011;16421;50.202;7.852;2023-12-20T03:27:06;0.57;;;0.57;;
29218;SDS011;16421;50.202;7.852;2023-12-20T03:32:09;0.73;;;0.63;;
29218;SDS011;16421;50.202;7.852;2023-12-20T03:37:12;0.88;;;0.80;;
29218;SDS011;16421;50.202;7.852;2023-12-20T03:42:17;4.63;;;0.85;;
29218;SDS011;16421;50.202;7.852;2023-12-20T03:47:20;0.93;;;0.88;;
29218;SDS011;16421;50.202;7.852;2023-12-20T03:52:23;1.10;;;0.80;;
29218;SDS011;16421;50.202;7.852;2023-12-20T03:57:28;1.00;;;0.90;;
29218;SDS011;16421;50.202;7.852;2023-12-20T04:02:31;1.58;;;0.90;;
29218;SDS011;16421;50.202;7.852;2023-12-20T04:07:34;1.10;;;1.00;;
29218;SDS011;16421;50.202;7.852;2023-12-20T04:12:39;2.60;;;1.08;;
29218;SDS011;16421;50.202;7.852;2023-12-20T04:17:42;6.05;;;1.30;;
29218;SDS011;16421;50.202;7.852;2023-12-20T04:22:46;4.18;;;1.75;;
29218;SDS011;16421;50.202;7.852;2023-12-20T04:27:50;3.55;;;1.10;;
29218;SDS011;16421;50.202;7.852;2023-12-20T04:32:53;3.97;;;1.38;;
29218;SDS011;16421;50.202;7.852;2023-12-20T04:37:58;3.45;;;1.30;;
29218;SDS011;16421;50.202;7.852;2023-12-20T04:43:02;3.78;;;1.63;;
29218;SDS011;16421;50.202;7.852;2023-12-20T04:48:06;5.53;;;1.77;;
29218;SDS011;16421;50.202;7.852;2023-12-20T04:53:09;7.70;;;1.80;;
29218;SDS011;16421;50.202;7.852;2023-12-20T04:58:14;4.05;;;1.10;;
29218;SDS011;16421;50.202;7.852;2023-12-20T05:03:17;3.70;;;1.50;;
29218;SDS011;16421;50.202;7.852;2023-12-20T05:08:20;4.25;;;1.52;;
29218;SDS011;16421;50.202;7.852;2023-12-20T05:13:25;4.75;;;1.30;;
29218;SDS011;16421;50.202;7.852;2023-12-20T05:18:34;5.47;;;1.60;;
29218;SDS011;16421;50.202;7.852;2023-12-20T05:23:37;2.70;;;1.00;;
29218;SDS011;16421;50.202;7.852;2023-12-20T05:28:42;6.40;;;1.70;;
29218;SDS011;16421;50.202;7.852;2023-12-20T05:33:46;3.33;;;1.30;;
29218;SDS011;16421;50.202;7.852;2023-12-20T05:38:49;7.97;;;2.10;;
29218;SDS011;16421;50.202;7.852;2023-12-20T05:43:54;3.47;;;1.33;;
29218;SDS011;16421;50.202;7.852;2023-12-20T05:54:02;3.50;;;1.30;;
29218;SDS011;16421;50.202;7.852;2023-12-20T05:59:07;4.72;;;1.60;;
29218;SDS011;16421;50.202;7.852;2023-12-20T06:04:10;6.45;;;1.42;;
29218;SDS011;16421;50.202;7.852;2023-12-20T06:09:14;4.78;;;1.20;;
29218;SDS011;16421;50.202;7.852;2023-12-20T06:14:18;5.65;;;1.33;;
29218;SDS011;16421;50.202;7.852;2023-12-20T06:19:22;6.93;;;1.73;;
29218;SDS011;16421;50.202;7.852;2023-12-20T06:24:25;5.00;;;1.33;;
29218;SDS011;16421;50.202;7.852;2023-12-20T06:29:30;4.72;;;2.15;;
29218;SDS011;16421;50.202;7.852;2023-12-20T06:34:34;4.78;;;1.45;;
29218;SDS011;16421;50.202;7.852;2023-12-20T06:39:37;3.90;;;1.40;;
29218;SDS011;16421;50.202;7.852;2023-12-20T06:44:42;4.18;;;1.45;;
29218;SDS011;16421;50.202;7.852;2023-12-20T06:49:45;4.43;;;1.30;;
29218;SDS011;16421;50.202;7.852;2023-12-20T06:54:48;3.30;;;1.25;;
29218;SDS011;16421;50.202;7.852;2023-12-20T06:59:53;3.17;;;1.20;;
29218;SDS011;16421;50.202;7.852;2023-12-20T07:04:56;3.90;;;1.63;;
29218;SDS011;16421;50.202;7.852;2023-12-20T07:10:00;5.05;;;1.55;;
29218;SDS011;16421;50.202;7.852;2023-12-20T07:15:05;5.03;;;1.45;;
29218;SDS011;16421;50.202;7.852;2023-12-20T07:20:09;7.88;;;2.17;;
29218;SDS011;16421;50.202;7.852;2023-12-20T07:25:14;3.88;;;1.23;;
29218;SDS011;16421;50.202;7.852;2023-12-20T07:30:18;5.80;;;1.85;;
29218;SDS011;16421;50.202;7.852;2023-12-20T07:35:22;6.05;;;1.90;;
29218;SDS011;16421;50.202;7.852;2023-12-20T07:40:26;7.18;;;1.88;;
29218;SDS011;16421;50.202;7.852;2023-12-20T07:45:31;6.00;;;1.90;;
29218;SDS011;16421;50.202;7.852;2023-12-20T07:50:34;5.28;;;1.70;;
29218;SDS011;16421;50.202;7.852;2023-12-20T07:55:38;6.30;;;1.80;;
29218;SDS011;16421;50.202;7.852;2023-12-20T08:00:43;4.78;;;1.98;;
29218;SDS011;16421;50.202;7.852;2023-12-20T08:05:46;6.05;;;1.77;;
29218;SDS011;16421;50.202;7.852;2023-12-20T08:10:49;9.10;;;2.45;;
29218;SDS011;16421;50.202;7.852;2023-12-20T08:15:55;7.47;;;1.88;;
29218;SDS011;16421;50.202;7.852;2023-12-20T08:20:58;7.17;;;1.97;;
29218;SDS011;16421;50.202;7.852;2023-12-20T08:26:03;6.30;;;2.33;;
29218;SDS011;16421;50.202;7.852;2023-12-20T08:31:14;5.50;;;2.00;;
29218;SDS011;16421;50.202;7.852;2023-12-20T08:36:18;8.38;;;2.95;;
29218;SDS011;16421;50.202;7.852;2023-12-20T08:46:28;8.18;;;2.20;;
29218;SDS011;16421;50.202;7.852;2023-12-20T08:51:32;6.63;;;2.30;;
29218;SDS011;16421;50.202;7.852;2023-12-20T08:56:35;10.30;;;2.70;;
29218;SDS011;16421;50.202;7.852;2023-12-20T09:01:40;6.20;;;2.08;;
29218;SDS011;16421;50.202;7.852;2023-12-20T09:06:43;9.60;;;2.78;;
29218;SDS011;16421;50.202;7.852;2023-12-20T09:11:46;6.68;;;1.98;;
29218;SDS011;16421;50.202;7.852;2023-12-20T09:16:54;5.40;;;2.10;;
29218;SDS011;16421;50.202;7.852;2023-12-20T09:21:57;6.47;;;2.45;;
29218;SDS011;16421;50.202;7.852;2023-12-20T09:27:00;11.98;;;3.20;;
29218;SDS011;16421;50.202;7.852;2023-12-20T09:32:05;7.97;;;2.70;;
29218;SDS011;16421;50.202;7.852;2023-12-20T09:37:09;11.65;;;3.42;;
29218;SDS011;16421;50.202;7.852;2023-12-20T09:42:12;7.38;;;2.00;;
29218;SDS011;16421;50.202;7.852;2023-12-20T09:47:25;9.57;;;2.47;;
29218;SDS011;16421;50.202;7.852;2023-12-20T09:52:28;6.28;;;2.17;;
29218;SDS011;16421;50.202;7.852;2023-12-20T09:57:33;10.45;;;2.40;;
29218;SDS011;16421;50.202;7.852;2023-12-20T10:02:37;8.07;;;2.45;;
29218;SDS011;16421;50.202;7.852;2023-12-20T10:07:43;6.88;;;2.55;;
29218;SDS011;16421;50.202;7.852;2023-12-20T10:13:00;10.05;;;3.22;;
29218;SDS011;16421;50.202;7.852;2023-12-20T10:18:06;8.63;;;2.83;;
29218;SDS011;16421;50.202;7.852;2023-12-20T10:23:10;7.13;;;1.90;;
29218;SDS011;16421;50.202;7.852;2023-12-20T10:28:15;6.88;;;2.28;;
29218;SDS011;16421;50.202;7.852;2023-12-20T10:33:24;6.93;;;2.65;;
29218;SDS011;16421;50.202;7.852;2023-12-20T10:38:28;9.10;;;2.58;;
29218;SDS011;16421;50.202;7.852;2023-12-20T10:43:31;6.82;;;2.28;;
29218;SDS011;16421;50.202;7.852;2023-12-20T10:48:37;9.25;;;2.38;;
29218;SDS011;16421;50.202;7.852;2023-12-20T10:53:42;13.85;;;2.90;;
29218;SDS011;16421;50.202;7.852;2023-12-20T10:58:47;10.38;;;2.58;;
29218;SDS011;16421;50.202;7.852;2023-12-20T11:03:53;9.30;;;2.70;;
29218;SDS011;16421;50.202;7.852;2023-12-20T11:08:58;6.47;;;2.67;;
29218;SDS011;16421;50.202;7.852;2023-12-20T11:14:13;8.80;;;2.55;;
29218;SDS011;16421;50.202;7.852;2023-12-20T11:19:22;8.35;;;2.63;;
29218;SDS011;16421;50.202;7.852;2023-12-20T11:24:25;7.47;;;2.20;;
29218;SDS011;16421;50.202;7.852;2023-12-20T11:29:29;13.35;;;2.70;;
29218;SDS011;16421;50.202;7.852;2023-12-20T11:34:35;7.07;;;2.50;;
29218;SDS011;16421;50.202;7.852;2023-12-20T11:39:38;9.43;;;2.42;;
29218;SDS011;16421;50.202;7.852;2023-12-20T11:44:42;11.57;;;2.88;;
29218;SDS011;16421;50.202;7.852;2023-12-20T11:49:48;9.73;;;2.70;;
29218;SDS011;16421;50.202;7.852;2023-12-20T11:54:52;9.27;;;2.22;;
29218;SDS011;16421;50.202;7.852;2023-12-20T11:59:55;7.28;;;2.20;;
29218;SDS011;16421;50.202;7.852;2023-12-20T12:05:00;3.20;;;1.80;;
29218;SDS011;16421;50.202;7.852;2023-12-20T12:10:06;8.88;;;2.80;;
29218;SDS011;16421;50.202;7.852;2023-12-20T12:15:10;8.77;;;2.53;;
29218;SDS011;16421;50.202;7.852;2023-12-20T12:20:15;9.50;;;2.30;;
29218;SDS011;16421;50.202;7.852;2023-12-20T12:25:22;8.15;;;2.67;;
29218;SDS011;16421;50.202;7.852;2023-12-20T12:30:26;8.00;;;2.90;;
29218;SDS011;16421;50.202;7.852;2023-12-20T12:35:34;12.93;;;3.25;;
29218;SDS011;16421;50.202;7.852;2023-12-20T12:40:37;8.57;;;2.80;;
29218;SDS011;16421;50.202;7.852;2023-12-20T12:45:40;10.18;;;3.25;;
29218;SDS011;16421;50.202;7.852;2023-12-20T12:50:46;8.30;;;2.55;;
29218;SDS011;16421;50.202;7.852;2023-12-20T12:55:49;10.35;;;2.70;;
29218;SDS011;16421;50.202;7.852;2023-12-20T13:00:53;7.38;;;2.47;;
29218;SDS011;16421;50.202;7.852;2023-12-20T13:05:58;12.20;;;2.88;;
29218;SDS011;16421;50.202;7.852;2023-12-20T13:11:01;6.50;;;2.53;;
29218;SDS011;16421;50.202;7.852;2023-12-20T13:16:05;9.27;;;3.30;;
29218;SDS011;16421;50.202;7.852;2023-12-20T13:21:10;8.70;;;2.80;;
29218;SDS011;16421;50.202;7.852;2023-12-20T13:26:13;12.65;;;2.60;;
29218;SDS011;16421;50.202;7.852;2023-12-20T13:31:17;8.55;;;2.70;;
29218;SDS011;16421;50.202;7.852;2023-12-20T13:36:23;12.43;;;3.33;;
29218;SDS011;16421;50.202;7.852;2023-12-20T13:41:26;6.32;;;2.40;;
29218;SDS011;16421;50.202;7.852;2023-12-20T13:46:29;5.03;;;2.15;;
29218;SDS011;16421;50.202;7.852;2023-12-20T13:51:34;11.13;;;2.13;;
29218;SDS011;16421;50.202;7.852;2023-12-20T13:56:37;10.35;;;2.50;;
29218;SDS011;16421;50.202;7.852;2023-12-20T14:01:43;8.60;;;2.05;;
29218;SDS011;16421;50.202;7.852;2023-12-20T14:06:48;8.43;;;1.92;;
29218;SDS011;16421;50.202;7.852;2023-12-20T14:11:51;6.45;;;1.70;;
29218;SDS011;16421;50.202;7.852;2023-12-20T14:16:56;5.57;;;1.73;;
29218;SDS011;16421;50.202;7.852;2023-12-20T14:22:00;9.00;;;2.15;;
29218;SDS011;16421;50.202;7.852;2023-12-20T14:32:10;5.05;;;1.80;;
29218;SDS011;16421;50.202;7.852;2023-12-20T14:37:16;5.43;;;1.83;;
29218;SDS011;16421;50.202;7.852;2023-12-20T14:42:19;4.22;;;1.60;;
29218;SDS011;16421;50.202;7.852;2023-12-20T14:47:24;10.00;;;2.13;;
29218;SDS011;16421;50.202;7.852;2023-12-20T14:52:28;8.50;;;1.50;;
29218;SDS011;16421;50.202;7.852;2023-12-20T14:57:32;7.03;;;1.50;;
29218;SDS011;16421;50.202;7.852;2023-12-20T15:02:35;6.35;;;2.00;;
29218;SDS011;16421;50.202;7.852;2023-12-20T15:07:39;5.43;;;1.58;;
29218;SDS011;16421;50.202;7.852;2023-12-20T15:12:43;6.47;;;2.10;;
29218;SDS011;16421;50.202;7.852;2023-12-20T15:17:47;8.43;;;1.80;;
29218;SDS011;16421;50.202;7.852;2023-12-20T15:22:51;7.15;;;2.08;;
29218;SDS011;16421;50.202;7.852;2023-12-20T15:27:56;6.43;;;2.17;;
29218;SDS011;16421;50.202;7.852;2023-12-20T15:32:59;6.63;;;1.80;;
29218;SDS011;16421;50.202;7.852;2023-12-20T15:38:06;7.53;;;1.87;;
29218;SDS011;16421;50.202;7.852;2023-12-20T15:43:09;6.25;;;1.60;;
29218;SDS011;16421;50.202;7.852;2023-12-20T15:48:12;4.25;;;1.70;;
29218;SDS011;16421;50.202;7.852;2023-12-20T15:53:21;9.95;;;2.63;;
29218;SDS011;16421;50.202;7.852;2023-12-20T15:58:24;8.32;;;2.22;;
29218;SDS011;16421;50.202;7.852;2023-12-20T16:03:28;5.30;;;2.03;;
29218;SDS011;16421;50.202;7.852;2023-12-20T16:08:34;8.77;;;2.47;;
29218;SDS011;16421;50.202;7.852;2023-12-20T16:13:37;5.13;;;1.63;;
29218;SDS011;16421;50.202;7.852;2023-12-20T16:18:41;5.72;;;1.50;;
29218;SDS011;16421;50.202;7.852;2023-12-20T16:23:45;8.48;;;2.00;;
29218;SDS011;16421;50.202;7.852;2023-12-20T16:28:49;3.53;;;1.58;;
29218;SDS011;16421;50.202;7.852;2023-12-20T16:33:52;5.35;;;2.10;;
29218;SDS011;16421;50.202;7.852;2023-12-20T16:38:57;3.97;;;1.60;;
29218;SDS011;16421;50.202;7.852;2023-12-20T16:44:01;4.80;;;1.55;;
29218;SDS011;16421;50.202;7.852;2023-12-20T16:49:04;5.13;;;1.95;;
29218;SDS011;16421;50.202;7.852;2023-12-20T16:54:09;6.47;;;2.20;;
29218;SDS011;16421;50.202;7.852;2023-12-20T16:59:13;5.78;;;1.75;;
29218;SDS011;16421;50.202;7.852;2023-12-20T17:04:16;4.55;;;1.65;;
29218;SDS011;16421;50.202;7.852;2023-12-20T17:09:20;4.47;;;1.45;;
29218;SDS011;16421;50.202;7.852;2023-12-20T17:14:24;5.10;;;1.77;;
29218;SDS011;16421;50.202;7.852;2023-12-20T17:19:27;6.85;;;2.28;;
29218;SDS011;16421;50.202;7.852;2023-12-20T17:24:34;4.30;;;1.50;;
29218;SDS011;16421;50.202;7.852;2023-12-20T17:29:38;5.65;;;1.77;;
29218;SDS011;16421;50.202;7.852;2023-12-20T17:34:41;5.43;;;1.77;;
29218;SDS011;16421;50.202;7.852;2023-12-20T17:39:45;3.88;;;1.20;;
29218;SDS011;16421;50.202;7.852;2023-12-20T17:44:49;6.70;;;2.20;;
29218;SDS011;16421;50.202;7.852;2023-12-20T17:49:52;3.92;;;1.90;;
29218;SDS011;16421;50.202;7.852;2023-12-20T17:54:56;5.10;;;1.73;;
29218;SDS011;16421;50.202;7.852;2023-12-20T18:00:10;5.38;;;1.85;;
29218;SDS011;16421;50.202;7.852;2023-12-20T18:05:15;7.57;;;1.77;;
29218;SDS011;16421;50.202;7.852;2023-12-20T18:10:19;3.47;;;1.60;;
29218;SDS011;16421;50.202;7.852;2023-12-20T18:15:23;4.15;;;1.35;;
29218;SDS011;16421;50.202;7.852;2023-12-20T18:20:26;4.55;;;1.60;;
29218;SDS011;16421;50.202;7.852;2023-12-20T18:25:31;4.53;;;2.15;;
29218;SDS011;16421;50.202;7.852;2023-12-20T18:30:34;2.08;;;1.17;;
29218;SDS011;16421;50.202;7.852;2023-12-20T18:35:38;3.45;;;1.80;;
29218;SDS011;16421;50.202;7.852;2023-12-20T18:40:46;3.45;;;1.40;;
29218;SDS011;16421;50.202;7.852;2023-12-20T18:45:53;2.22;;;1.17;;
29218;SDS011;16421;50.202;7.852;2023-12-20T18:51:00;5.40;;;1.30;;
29218;SDS011;16421;50.202;7.852;2023-12-20T18:56:06;4.15;;;1.33;;
29218;SDS011;16421;50.202;7.852;2023-12-20T19:01:09;2.78;;;1.45;;
29218;SDS011;16421;50.202;7.852;2023-12-20T19:06:13;3.60;;;1.15;;
29218;SDS011;16421;50.202;7.852;2023-12-20T19:11:18;4.15;;;1.08;;
29218;SDS011;16421;50.202;7.852;2023-12-20T19:16:22;7.07;;;1.65;;
29218;SDS011;16421;50.202;7.852;2023-12-20T19:21:25;2.85;;;1.10;;
29218;SDS011;16421;50.202;7.852;2023-12-20T19:26:29;1.88;;;0.90;;
29218;SDS011;16421;50.202;7.852;2023-12-20T19:31:33;3.95;;;1.40;;
29218;SDS011;16421;50.202;7.852;2023-12-20T19:36:36;3.38;;;1.30;;
29218;SDS011;16421;50.202;7.852;2023-12-20T19:41:41;3.95;;;1.40;;
29218;SDS011;16421;50.202;7.852;2023-12-20T19:46:44;4.68;;;1.35;;
29218;SDS011;16421;50.202;7.852;2023-12-20T19:51:49;2.40;;;1.10;;
29218;SDS011;16421;50.202;7.852;2023-12-20T19:56:54;4.55;;;1.25;;
29218;SDS011;16421;50.202;7.852;2023-12-20T20:01:58;3.65;;;1.40;;
29218;SDS011;16421;50.202;7.852;2023-12-20T20:07:03;4.65;;;1.42;;
29218;SDS011;16421;50.202;7.852;2023-12-20T20:12:12;2.92;;;1.40;;
29218;SDS011;16421;50.202;7.852;2023-12-20T20:17:15;3.47;;;1.50;;
29218;SDS011;16421;50.202;7.852;2023-12-20T20:22:19;3.75;;;1.20;;
29218;SDS011;16421;50.202;7.852;2023-12-20T20:27:26;5.07;;;1.87;;
29218;SDS011;16421;50.202;7.852;2023-12-20T20:32:29;4.05;;;1.25;;
29218;SDS011;16421;50.202;7.852;2023-12-20T20:37:33;2.72;;;1.30;;
29218;SDS011;16421;50.202;7.852;2023-12-20T20:42:37;2.50;;;1.50;;
29218;SDS011;16421;50.202;7.852;2023-12-20T20:47:41;2.47;;;1.30;;
29218;SDS011;16421;50.202;7.852;2023-12-20T20:52:44;4.10;;;1.52;;
29218;SDS011;16421;50.202;7.852;2023-12-20T20:57:49;4.65;;;1.23;;
29218;SDS011;16421;50.202;7.852;2023-12-20T21:02:52;5.50;;;2.05;;
29218;SDS011;16421;50.202;7.852;2023-12-20T21:07:56;3.92;;;1.77;;
29218;SDS011;16421;50.202;7.852;2023-12-20T21:13:00;2.47;;;1.02;;
29218;SDS011;16421;50.202;7.852;2023-12-20T21:18:04;4.13;;;1.20;;
29218;SDS011;16421;50.202;7.852;2023-12-20T21:23:08;3.80;;;1.02;;
29218;SDS011;16421;50.202;7.852;2023-12-20T21:28:12;3.03;;;1.00;;
29218;SDS011;16421;50.202;7.852;2023-12-20T21:33:16;3.20;;;0.98;;
29218;SDS011;16421;50.202;7.852;2023-12-20T21:38:19;5.45;;;1.52;;
29218;SDS011;16421;50.202;7.852;2023-12-20T21:43:24;3.47;;;1.30;;
29218;SDS011;16421;50.202;7.852;2023-12-20T21:48:27;2.40;;;1.08;;
29218;SDS011;16421;50.202;7.852;2023-12-20T21:53:30;2.55;;;1.10;;
29218;SDS011;16421;50.202;7.852;2023-12-20T21:58:35;1.50;;;0.82;;
29218;SDS011;16421;50.202;7.852;2023-12-20T22:03:39;1.05;;;0.85;;
29218;SDS011;16421;50.202;7.852;2023-12-20T22:08:42;3.00;;;0.90;;
29218;SDS011;16421;50.202;7.852;2023-12-20T22:13:47;2.08;;;0.90;;
29218;SDS011;16421;50.202;7.852;2023-12-20T22:18:50;0.90;;;0.68;;
29218;SDS011;16421;50.202;7.852;2023-12-20T22:23:53;1.75;;;0.70;;
29218;SDS011;16421;50.202;7.852;2023-12-20T22:28:58;1.83;;;0.60;;
29218;SDS011;16421;50.202;7.852;2023-12-20T22:34:01;1.30;;;0.70;;
29218;SDS011;16421;50.202;7.852;2023-12-20T22:39:04;0.93;;;0.70;;
29218;SDS011;16421;50.202;7.852;2023-12-20T22:44:09;0.60;;;0.50;;
29218;SDS011;16421;50.202;7.852;2023-12-20T22:49:12;1.55;;;0.63;;
29218;SDS011;16421;50.202;7.852;2023-12-20T22:54:15;1.25;;;0.80;;
29218;SDS011;16421;50.202;7.852;2023-12-20T22:59:21;0.80;;;0.65;;
29218;SDS011;16421;50.202;7.852;2023-12-20T23:04:24;1.80;;;0.85;;
29218;SDS011;16421;50.202;7.852;2023-12-20T23:09:27;0.57;;;0.50;;
29218;SDS011;16421;50.202;7.852;2023-12-20T23:14:32;2.08;;;0.70;;
29218;SDS011;16421;50.202;7.852;2023-12-20T23:19:35;0.40;;;0.40;;
29218;SDS011;16421;50.202;7.852;2023-12-20T23:24:38;0.73;;;0.63;;
29218;SDS011;16421;50.202;7.852;2023-12-20T23:29:44;0.55;;;0.50;;
29218;SDS011;16421;50.202;7.852;2023-12-20T23:34:47;1.35;;;0.60;;
29218;SDS011;16421;50.202;7.852;2023-12-20T23:39:57;0.90;;;0.60;;
29218;SDS011;16421;50.202;7.852;2023-12-20T23:45:02;1.00;;;0.60;;
29218;SDS011;16421;50.202;7.852;2023-12-20T23:50:06;0.60;;;0.60;;
29218;SDS011;16421;50.202;7.852;2023-12-20T23:55:10;2.05;;;0.93;;
